createdAt,value
2022-12-01T00:01:09.237Z,51.83
2022-12-01T00:03:37.117Z,64.68
2022-12-01T00:06:05.982Z,58.20
2022-12-01T00:08:33.867Z,42.63
2022-12-01T00:11:06.641Z,52.40
2022-12-01T00:13:34.599Z,57.13
2022-12-01T00:16:14.824Z,53.23
2022-12-01T00:18:42.598Z,56.40
2022-12-01T00:21:19.593Z,59.08
2022-12-01T00:23:47.664Z,52.43
2022-12-01T00:26:15.635Z,52.00
2022-12-01T00:28:43.488Z,54.00
2022-12-01T00:31:11.647Z,62.33
2022-12-01T00:33:39.533Z,55.93
2022-12-01T00:36:07.699Z,62.33
2022-12-01T00:38:35.443Z,55.05
2022-12-01T00:41:03.293Z,60.97
2022-12-01T00:43:31.056Z,55.63
2022-12-01T00:45:58.803Z,55.55
2022-12-01T00:48:26.504Z,52.70
2022-12-01T00:50:54.307Z,62.60
2022-12-01T00:53:22.152Z,56.80
2022-12-01T00:55:49.948Z,59.08
2022-12-01T00:58:17.580Z,57.67
2022-12-01T01:00:45.264Z,58.95
2022-12-01T01:03:12.945Z,62.13
2022-12-01T01:05:41.009Z,61.40
2022-12-01T01:08:09.200Z,66.15
2022-12-01T01:10:40.291Z,66.28
2022-12-01T01:13:07.966Z,52.30
2022-12-01T01:15:35.731Z,58.10
2022-12-01T01:18:03.554Z,60.53
2022-12-01T01:20:32.431Z,60.75
2022-12-01T01:23:00.187Z,66.60
2022-12-01T01:25:27.789Z,65.05
2022-12-01T01:27:55.561Z,61.58
2022-12-01T01:30:23.246Z,57.93
2022-12-01T01:32:51.047Z,54.35
2022-12-01T01:35:18.803Z,57.10
2022-12-01T01:37:46.451Z,52.47
2022-12-01T01:40:14.103Z,59.33
2022-12-01T01:42:41.763Z,48.08
2022-12-01T01:45:17.682Z,61.42
2022-12-01T01:47:46.562Z,58.10
2022-12-01T01:50:14.639Z,55.10
2022-12-01T01:52:52.730Z,58.28
2022-12-01T01:55:20.456Z,59.33
2022-12-01T01:57:48.081Z,56.83
2022-12-01T02:00:16.884Z,55.47
2022-12-01T02:02:45.343Z,58.47
2022-12-01T02:05:13.978Z,51.67
2022-12-01T02:07:41.897Z,66.55
2022-12-01T02:10:10.352Z,58.90
2022-12-01T02:12:47.284Z,65.67
2022-12-01T02:15:24.063Z,55.80
2022-12-01T02:18:10.277Z,62.70
2022-12-01T02:20:37.988Z,51.43
2022-12-01T02:23:24.209Z,53.97
2022-12-01T02:26:03.923Z,59.08
2022-12-01T02:28:34.498Z,48.53
2022-12-01T02:31:04.268Z,54.50
2022-12-01T02:33:40.647Z,57.47
2022-12-01T02:36:27.152Z,61.55
2022-12-01T02:39:00.169Z,57.20
2022-12-01T02:41:29.734Z,57.47
2022-12-01T02:44:02.661Z,55.72
2022-12-01T02:46:32.179Z,63.47
2022-12-01T02:49:00.655Z,55.35
2022-12-01T02:51:30.940Z,57.15
2022-12-01T02:54:02.340Z,60.23
2022-12-01T02:56:30.101Z,53.72
2022-12-01T02:58:57.828Z,58.42
2022-12-01T03:01:44.016Z,57.58
2022-12-01T03:04:14.958Z,51.77
2022-12-01T03:06:42.622Z,46.03
2022-12-01T03:09:10.286Z,51.63
2022-12-01T03:11:51.610Z,57.00
2022-12-01T03:14:19.339Z,54.05
2022-12-01T03:16:53.352Z,52.38
2022-12-01T03:19:23.245Z,54.93
2022-12-01T03:21:53.498Z,54.63
2022-12-01T03:24:22.290Z,58.00
2022-12-01T03:26:51.954Z,52.85
2022-12-01T03:29:22.818Z,55.00
2022-12-01T03:31:53.227Z,55.42
2022-12-01T03:34:26.011Z,49.33
2022-12-01T03:37:13.918Z,53.70
2022-12-01T03:39:41.595Z,54.67
2022-12-01T03:42:17.500Z,55.42
2022-12-01T03:44:46.654Z,51.50
2022-12-01T03:47:15.804Z,52.63
2022-12-01T03:49:43.524Z,47.45
2022-12-01T03:52:20.144Z,48.90
2022-12-01T03:54:53.660Z,37.70
2022-12-01T03:57:24.207Z,38.85
2022-12-01T03:59:52.008Z,45.50
2022-12-01T04:02:19.788Z,45.93
2022-12-01T04:04:47.424Z,43.22
2022-12-01T04:07:15.200Z,38.97
2022-12-01T04:09:42.833Z,44.10
2022-12-01T04:12:29.866Z,30.88
2022-12-01T04:15:02.225Z,23.80
2022-12-01T04:17:30.006Z,25.60
2022-12-01T04:19:57.696Z,30.97
2022-12-01T04:22:25.533Z,23.08
2022-12-01T04:24:53.580Z,25.70
2022-12-01T04:27:21.374Z,25.00
2022-12-01T04:29:49.429Z,20.83
2022-12-01T04:32:17.298Z,16.85
2022-12-01T04:34:45.064Z,15.37
2022-12-01T04:37:13.089Z,14.20
2022-12-01T04:39:42.288Z,13.30
2022-12-01T04:42:10.098Z,11.50
2022-12-01T04:44:37.714Z,15.03
2022-12-01T04:47:05.782Z,9.90
2022-12-01T04:49:33.642Z,12.60
2022-12-01T04:52:01.301Z,10.70
2022-12-01T04:54:29.128Z,12.35
2022-12-01T04:56:56.915Z,12.70
2022-12-01T04:59:24.611Z,16.30
2022-12-01T05:01:52.257Z,9.93
2022-12-01T05:04:19.926Z,11.32
2022-12-01T05:06:47.611Z,19.20
2022-12-01T05:09:17.570Z,13.30
2022-12-01T05:11:48.009Z,13.77
2022-12-01T05:14:15.705Z,11.23
2022-12-01T05:16:43.464Z,10.87
2022-12-01T05:19:29.953Z,7.30
2022-12-01T05:21:57.583Z,9.77
2022-12-01T05:24:25.334Z,7.10
2022-12-01T05:26:53.066Z,8.05
2022-12-01T05:29:20.823Z,7.82
2022-12-01T05:31:48.597Z,8.13
2022-12-01T05:34:16.325Z,6.07
2022-12-01T05:36:44.005Z,7.53
2022-12-01T05:39:11.601Z,8.10
2022-12-01T05:41:39.303Z,12.10
2022-12-01T05:44:06.942Z,11.95
2022-12-01T05:46:34.692Z,11.15
2022-12-01T05:49:02.348Z,10.03
2022-12-01T05:51:30.066Z,15.13
2022-12-01T05:53:59.664Z,12.15
2022-12-01T05:56:27.466Z,9.98
2022-12-01T05:58:55.206Z,13.37
2022-12-01T06:01:23.068Z,9.77
2022-12-01T06:03:50.771Z,10.45
2022-12-01T06:06:18.542Z,13.77
2022-12-01T06:08:46.210Z,10.30
2022-12-01T06:11:13.936Z,14.13
2022-12-01T06:13:41.735Z,11.67
2022-12-01T06:16:09.533Z,12.98
2022-12-01T06:18:37.849Z,13.27
2022-12-01T06:21:05.936Z,7.38
2022-12-01T06:23:33.640Z,13.13
2022-12-01T06:26:01.291Z,10.52
2022-12-01T06:28:28.942Z,16.48
2022-12-01T06:31:02.928Z,10.20
2022-12-01T06:33:31.977Z,18.55
2022-12-01T06:36:00.363Z,8.52
2022-12-01T06:38:28.032Z,14.13
2022-12-01T06:40:55.803Z,11.15
2022-12-01T06:43:23.670Z,10.88
2022-12-01T06:45:54.133Z,9.88
2022-12-01T06:48:25.572Z,11.70
2022-12-01T06:50:53.203Z,7.20
2022-12-01T06:53:20.927Z,12.23
2022-12-01T06:55:48.622Z,9.97
2022-12-01T06:58:16.932Z,11.80
2022-12-01T07:00:49.064Z,9.82
2022-12-01T07:03:19.684Z,11.23
2022-12-01T07:05:56.001Z,12.35
2022-12-01T07:08:23.723Z,11.25
2022-12-01T07:11:00.793Z,8.18
2022-12-01T07:13:33.321Z,11.07
2022-12-01T07:16:03.117Z,10.10
2022-12-01T07:18:31.353Z,10.38
2022-12-01T07:21:06.107Z,11.70
2022-12-01T07:23:33.800Z,11.40
2022-12-01T07:26:05.273Z,9.07
2022-12-01T07:28:33.062Z,8.53
2022-12-01T07:31:07.476Z,11.68
2022-12-01T07:33:35.442Z,8.25
2022-12-01T07:36:03.159Z,12.63
2022-12-01T07:38:31.316Z,10.67
2022-12-01T07:41:02.608Z,10.25
2022-12-01T07:43:31.517Z,11.88
2022-12-01T07:46:04.713Z,9.77
2022-12-01T07:48:32.440Z,16.52
2022-12-01T07:51:00.184Z,13.27
2022-12-01T07:53:27.880Z,12.07
2022-12-01T07:55:55.514Z,12.48
2022-12-01T07:58:23.199Z,8.27
2022-12-01T08:00:50.835Z,9.45
2022-12-01T08:03:18.544Z,14.43
2022-12-01T08:05:46.180Z,8.13
2022-12-01T08:08:14.000Z,10.05
2022-12-01T08:10:41.730Z,9.87
2022-12-01T08:13:12.921Z,11.45
2022-12-01T08:15:44.829Z,14.90
2022-12-01T08:18:12.455Z,21.77
2022-12-01T08:20:40.155Z,17.45
2022-12-01T08:23:08.304Z,12.05
2022-12-01T08:25:36.002Z,10.07
2022-12-01T08:28:03.708Z,13.37
2022-12-01T08:30:32.690Z,10.70
2022-12-01T08:33:00.323Z,12.32
2022-12-01T08:35:28.114Z,9.57
2022-12-01T08:37:55.736Z,8.05
2022-12-01T08:40:23.492Z,9.20
2022-12-01T08:42:52.905Z,9.50
2022-12-01T08:45:20.858Z,11.93
2022-12-01T08:47:48.601Z,9.45
2022-12-01T08:50:16.439Z,12.02
2022-12-01T08:52:44.176Z,9.47
2022-12-01T08:55:11.860Z,12.20
2022-12-01T08:57:39.555Z,8.90
2022-12-01T09:00:07.843Z,9.00
2022-12-01T09:02:35.787Z,11.15
2022-12-01T09:05:03.520Z,12.90
2022-12-01T09:07:31.286Z,8.93
2022-12-01T09:09:58.924Z,11.95
2022-12-01T09:12:26.629Z,11.85
2022-12-01T09:14:54.262Z,10.00
2022-12-01T09:17:21.973Z,12.50
2022-12-01T09:19:49.797Z,11.43
2022-12-01T09:22:17.629Z,11.10
2022-12-01T09:24:45.375Z,11.60
2022-12-01T09:27:13.375Z,9.40
2022-12-01T09:29:41.088Z,10.55
2022-12-01T09:32:08.735Z,11.63
2022-12-01T09:34:36.436Z,10.45
2022-12-01T09:37:04.032Z,12.88
2022-12-01T09:39:31.742Z,11.45
2022-12-01T09:42:30.894Z,11.80
2022-12-01T09:45:02.908Z,11.02
2022-12-01T09:47:36.763Z,10.10
2022-12-01T09:50:08.341Z,11.33
2022-12-01T09:52:44.964Z,12.20
2022-12-01T09:55:13.068Z,13.25
2022-12-01T09:57:40.756Z,10.43
2022-12-01T10:00:12.516Z,13.25
2022-12-01T10:02:41.382Z,9.75
2022-12-01T10:05:13.445Z,10.77
2022-12-01T10:07:44.766Z,12.60
2022-12-01T10:10:16.313Z,11.63
2022-12-01T10:12:44.480Z,9.30
2022-12-01T10:15:35.218Z,8.13
2022-12-01T10:18:05.995Z,12.30
2022-12-01T10:20:45.193Z,9.02
2022-12-01T10:23:31.504Z,8.00
2022-12-01T10:25:59.843Z,8.80
2022-12-01T10:28:32.064Z,4.68
2022-12-01T10:31:12.509Z,12.90
2022-12-01T10:33:42.975Z,16.50
2022-12-01T10:36:10.900Z,14.85
2022-12-01T10:38:38.649Z,19.65
2022-12-01T10:41:06.991Z,19.40
2022-12-01T10:43:42.334Z,22.65
2022-12-01T10:46:20.750Z,18.30
2022-12-01T10:48:55.584Z,22.50
2022-12-01T10:51:23.316Z,26.45
2022-12-01T10:53:51.049Z,30.48
2022-12-01T10:56:22.012Z,17.50
2022-12-01T10:58:50.739Z,30.77
2022-12-01T11:01:23.269Z,25.45
2022-12-01T11:03:52.432Z,29.35
2022-12-01T11:06:23.967Z,31.23
2022-12-01T11:08:52.645Z,34.20
2022-12-01T11:11:27.785Z,32.05
2022-12-01T11:13:55.746Z,31.17
2022-12-01T11:16:54.127Z,34.50
2022-12-01T11:19:27.339Z,26.70
2022-12-01T11:21:58.844Z,30.30
2022-12-01T11:24:26.585Z,24.43
2022-12-01T11:26:54.240Z,26.85
2022-12-01T11:29:39.195Z,30.75
2022-12-01T11:32:32.889Z,25.63
2022-12-01T11:35:01.524Z,26.70
2022-12-01T11:37:32.819Z,28.60
2022-12-01T11:40:26.851Z,26.97
2022-12-01T11:42:55.210Z,30.20
2022-12-01T11:45:22.957Z,37.95
2022-12-01T11:48:00.884Z,33.47
2022-12-01T11:50:29.595Z,27.90
2022-12-01T11:52:57.279Z,29.20
2022-12-01T11:55:25.940Z,29.70
2022-12-01T11:57:54.379Z,24.57
2022-12-01T12:00:22.324Z,25.80
2022-12-01T12:02:56.811Z,35.63
2022-12-01T12:05:40.666Z,29.20
2022-12-01T12:08:31.828Z,32.70
2022-12-01T12:11:02.696Z,34.35
2022-12-01T12:13:48.879Z,31.80
2022-12-01T12:16:23.307Z,31.50
2022-12-01T12:19:14.885Z,26.55
2022-12-01T12:22:02.540Z,21.90
2022-12-01T12:24:32.913Z,25.00
2022-12-01T12:27:19.647Z,23.38
2022-12-01T12:29:47.744Z,28.88
2022-12-01T12:32:33.756Z,25.13
2022-12-01T12:35:01.409Z,32.15
2022-12-01T12:37:32.157Z,26.58
2022-12-01T12:40:11.817Z,25.15
2022-12-01T12:42:48.351Z,25.20
2022-12-01T12:45:30.871Z,30.70
2022-12-01T12:47:58.516Z,19.38
2022-12-01T12:50:29.026Z,24.87
2022-12-01T12:52:58.133Z,25.38
2022-12-01T12:55:25.812Z,25.52
2022-12-01T12:57:57.946Z,30.03
2022-12-01T13:00:26.768Z,29.38
2022-12-01T13:03:06.653Z,28.60
2022-12-01T13:05:36.381Z,30.60
2022-12-01T13:08:26.773Z,30.30
2022-12-01T13:11:25.409Z,28.02
2022-12-01T13:14:27.215Z,29.38
2022-12-01T13:17:20.915Z,36.83
2022-12-01T13:20:12.991Z,33.65
2022-12-01T13:23:01.060Z,33.67
2022-12-01T13:25:49.983Z,30.13
2022-12-01T13:28:39.350Z,25.65
2022-12-01T13:31:27.364Z,24.54
2022-12-01T13:33:55.219Z,33.50
2022-12-01T13:36:45.826Z,27.60
2022-12-01T13:39:20.874Z,16.73
2022-12-01T13:41:57.200Z,22.08
2022-12-01T13:44:28.692Z,36.60
2022-12-01T13:47:07.182Z,21.87
2022-12-01T13:49:44.920Z,28.35
2022-12-01T13:52:28.399Z,13.48
2022-12-01T13:55:08.378Z,27.35
2022-12-01T13:57:38.972Z,27.93
2022-12-01T14:00:06.960Z,15.70
2022-12-01T14:02:35.286Z,30.38
2022-12-01T14:05:21.811Z,29.13
2022-12-01T14:07:52.746Z,29.20
2022-12-01T14:10:32.685Z,28.95
2022-12-01T14:13:01.600Z,26.00
2022-12-01T14:15:42.363Z,34.53
2022-12-01T14:18:33.145Z,24.20
2022-12-01T14:21:01.249Z,27.92
2022-12-01T14:23:36.301Z,20.43
2022-12-01T14:26:15.920Z,28.67
2022-12-01T14:28:55.962Z,26.55
2022-12-01T14:31:24.156Z,30.90
2022-12-01T14:34:03.868Z,20.63
2022-12-01T14:36:42.515Z,25.33
2022-12-01T14:39:13.124Z,25.13
2022-12-01T14:41:40.754Z,17.90
2022-12-01T14:44:27.092Z,29.85
2022-12-01T14:46:57.691Z,24.38
2022-12-01T14:49:26.807Z,30.23
2022-12-01T14:51:57.641Z,24.20
2022-12-01T14:54:35.815Z,35.63
2022-12-01T14:57:09.062Z,32.77
2022-12-01T14:59:48.170Z,25.57
2022-12-01T15:02:15.850Z,35.00
2022-12-01T15:05:02.169Z,38.63
2022-12-01T15:07:29.891Z,36.97
2022-12-01T15:10:02.012Z,39.17
2022-12-01T15:12:29.947Z,34.22
2022-12-01T15:14:57.710Z,37.57
2022-12-01T15:17:32.115Z,40.88
2022-12-01T15:19:59.931Z,40.55
2022-12-01T15:22:31.232Z,47.33
2022-12-01T15:25:14.659Z,51.65
2022-12-01T15:27:43.587Z,45.08
2022-12-01T15:30:14.176Z,44.10
2022-12-01T15:32:43.277Z,38.37
2022-12-01T15:35:17.013Z,41.95
2022-12-01T15:37:44.917Z,44.50
2022-12-01T15:43:06.076Z,50.80
2022-12-01T15:45:43.140Z,43.97
2022-12-01T15:48:18.063Z,48.13
2022-12-01T15:50:47.323Z,52.17
2022-12-01T15:53:44.391Z,39.15
2022-12-01T15:56:12.132Z,42.80
2022-12-01T15:58:43.879Z,40.70
2022-12-01T16:01:11.655Z,40.03
2022-12-01T16:03:53.280Z,40.65
2022-12-01T16:06:21.459Z,44.07
2022-12-01T16:09:12.363Z,42.30
2022-12-01T16:11:40.386Z,38.50
2022-12-01T16:14:22.037Z,44.27
2022-12-01T16:16:50.162Z,42.08
2022-12-01T16:19:17.849Z,46.47
2022-12-01T16:21:45.635Z,35.17
2022-12-01T16:24:17.002Z,39.80
2022-12-01T16:26:48.670Z,35.40
2022-12-01T16:29:22.832Z,37.63
2022-12-01T16:32:19.740Z,36.57
2022-12-01T16:34:46.209Z,33.00
2022-12-01T16:37:14.514Z,42.92
2022-12-01T16:39:42.183Z,41.20
2022-12-01T16:42:17.193Z,37.65
2022-12-01T16:44:46.563Z,35.15
2022-12-01T16:47:15.567Z,33.35
2022-12-01T16:49:43.205Z,36.13
2022-12-01T16:54:59.999Z,31.48
2022-12-01T16:57:27.625Z,34.47
2022-12-01T16:59:55.314Z,35.92
2022-12-01T17:02:23.035Z,31.92
2022-12-01T17:04:50.955Z,32.70
2022-12-01T17:07:18.841Z,36.35
2022-12-01T17:09:46.516Z,31.52
2022-12-01T17:12:14.335Z,31.25
2022-12-01T17:14:42.035Z,32.70
2022-12-01T17:17:10.075Z,33.58
2022-12-01T17:19:37.728Z,33.42
2022-12-01T17:22:06.420Z,34.93
2022-12-01T17:24:34.057Z,34.00
2022-12-01T17:27:01.734Z,34.28
2022-12-01T17:29:29.415Z,29.33
2022-12-01T17:31:57.117Z,27.98
2022-12-01T17:34:27.136Z,29.38
2022-12-01T17:36:54.986Z,28.67
2022-12-01T17:39:22.664Z,27.90
2022-12-01T17:41:50.296Z,27.80
2022-12-01T17:44:17.961Z,31.88
2022-12-01T17:46:46.468Z,27.97
2022-12-01T17:49:14.201Z,27.95
2022-12-01T17:51:42.546Z,33.78
2022-12-01T17:54:10.354Z,24.43
2022-12-01T17:56:38.074Z,30.80
2022-12-01T17:59:06.957Z,34.80
2022-12-01T18:01:34.663Z,29.65
2022-12-01T18:04:02.497Z,30.23
2022-12-01T18:06:30.396Z,26.42
2022-12-01T18:08:58.147Z,23.25
2022-12-01T18:11:25.996Z,29.63
2022-12-01T18:13:54.245Z,30.58
2022-12-01T18:16:23.059Z,21.75
2022-12-01T18:18:53.319Z,15.10
2022-12-01T18:21:22.949Z,28.45
2022-12-01T18:23:58.343Z,23.13
2022-12-01T18:26:26.355Z,19.08
2022-12-01T18:28:55.418Z,25.03
2022-12-01T18:31:23.127Z,28.63
2022-12-01T18:33:57.558Z,28.02
2022-12-01T18:36:25.616Z,17.00
2022-12-01T18:38:54.660Z,26.80
2022-12-01T18:41:22.277Z,10.48
2022-12-01T18:43:50.174Z,26.17
2022-12-01T18:46:18.136Z,19.75
2022-12-01T18:48:46.397Z,40.75
2022-12-01T18:51:14.045Z,26.35
2022-12-01T18:53:41.782Z,16.70
2022-12-01T18:56:11.751Z,36.03
2022-12-01T18:58:39.905Z,20.85
2022-12-01T19:01:24.086Z,21.23
2022-12-01T19:03:55.476Z,19.58
2022-12-01T19:06:23.230Z,26.95
2022-12-01T19:08:50.992Z,15.83
2022-12-01T19:11:18.820Z,17.65
2022-12-01T19:13:46.638Z,19.50
2022-12-01T19:16:15.462Z,16.42
2022-12-01T19:18:45.862Z,14.00
2022-12-01T19:21:15.976Z,15.85
2022-12-01T19:23:43.754Z,16.75
2022-12-01T19:26:12.152Z,16.43
2022-12-01T19:28:40.658Z,23.90
2022-12-01T19:31:11.857Z,16.65
2022-12-01T19:33:40.030Z,25.50
2022-12-01T19:36:17.261Z,25.90
2022-12-01T19:38:46.506Z,13.75
2022-12-01T19:41:20.599Z,20.02
2022-12-01T19:43:48.837Z,22.40
2022-12-01T19:46:18.138Z,25.13
2022-12-01T19:48:46.291Z,23.85
2022-12-01T19:51:20.530Z,28.43
2022-12-01T19:53:48.331Z,28.80
2022-12-01T19:56:16.243Z,22.33
2022-12-01T19:58:44.023Z,22.63
2022-12-01T20:01:13.388Z,26.05
2022-12-01T20:03:42.160Z,18.80
2022-12-01T20:06:14.637Z,28.02
2022-12-01T20:08:42.489Z,20.73
2022-12-01T20:11:10.191Z,18.75
2022-12-01T20:13:38.811Z,15.98
2022-12-01T20:16:11.850Z,16.77
2022-12-01T20:18:39.667Z,18.70
2022-12-01T20:21:08.928Z,25.88
2022-12-01T20:23:39.155Z,17.50
2022-12-01T20:26:07.454Z,26.80
2022-12-01T20:28:35.395Z,23.35
2022-12-01T20:31:03.178Z,13.43
2022-12-01T20:33:30.914Z,22.87
2022-12-01T20:35:58.544Z,18.92
2022-12-01T20:38:27.856Z,23.63
2022-12-01T20:40:55.771Z,20.77
2022-12-01T20:43:23.612Z,18.75
2022-12-01T20:45:51.683Z,21.75
2022-12-01T20:48:19.335Z,21.43
2022-12-01T20:50:47.099Z,28.65
2022-12-01T20:53:14.697Z,26.90
2022-12-01T20:55:42.501Z,26.83
2022-12-01T20:58:10.416Z,18.90
2022-12-01T21:00:38.662Z,20.30
2022-12-01T21:03:06.385Z,22.58
2022-12-01T21:05:34.128Z,20.13
2022-12-01T21:08:02.091Z,19.35
2022-12-01T21:10:29.785Z,17.13
2022-12-01T21:13:18.322Z,20.73
2022-12-01T21:15:55.450Z,25.23
2022-12-01T21:18:27.172Z,25.52
2022-12-01T21:20:56.512Z,29.75
2022-12-01T21:23:24.700Z,24.67
2022-12-01T21:25:52.324Z,23.67
2022-12-01T21:28:21.141Z,19.58
2022-12-01T21:30:49.017Z,12.17
2022-12-01T21:33:18.060Z,19.83
2022-12-01T21:35:45.644Z,15.85
2022-12-01T21:38:17.696Z,16.90
2022-12-01T21:40:48.222Z,29.42
2022-12-01T21:43:17.719Z,19.15
2022-12-01T21:45:45.346Z,26.38
2022-12-01T21:48:21.447Z,16.27
2022-12-01T21:50:53.855Z,23.27
2022-12-01T21:53:21.929Z,19.80
2022-12-01T21:55:49.597Z,19.40
2022-12-01T21:58:17.325Z,16.50
2022-12-01T22:00:45.085Z,12.88
2022-12-01T22:03:15.922Z,14.53
2022-12-01T22:06:00.989Z,12.25
2022-12-01T22:08:32.658Z,12.02
2022-12-01T22:11:09.327Z,17.20
2022-12-01T22:13:41.211Z,27.70
2022-12-01T22:16:11.323Z,22.50
2022-12-01T22:18:39.186Z,23.77
2022-12-01T22:21:24.270Z,12.07
2022-12-01T22:23:58.429Z,23.52
2022-12-01T22:26:26.140Z,25.13
2022-12-01T22:28:54.543Z,17.17
2022-12-01T22:31:22.360Z,22.17
2022-12-01T22:33:50.947Z,22.45
2022-12-01T22:36:31.193Z,16.92
2022-12-01T22:38:58.926Z,21.77
2022-12-01T22:41:26.560Z,18.17
2022-12-01T22:43:57.691Z,14.82
2022-12-01T22:46:25.437Z,13.57
2022-12-01T22:48:56.850Z,15.80
2022-12-01T22:51:31.454Z,10.63
2022-12-01T22:54:00.624Z,8.83
2022-12-01T22:56:46.696Z,23.13
2022-12-01T22:59:21.729Z,12.75
2022-12-01T23:01:54.263Z,25.75
2022-12-01T23:04:28.801Z,26.40
2022-12-01T23:06:58.288Z,14.90
2022-12-01T23:09:37.907Z,19.20
2022-12-01T23:12:24.272Z,24.30
2022-12-01T23:14:53.600Z,22.60
2022-12-01T23:17:24.155Z,19.00
2022-12-01T23:19:52.554Z,22.57
2022-12-01T23:22:20.258Z,25.40
2022-12-01T23:24:48.152Z,21.70
2022-12-01T23:27:16.052Z,21.73
2022-12-01T23:29:43.642Z,21.47
2022-12-01T23:32:11.456Z,18.65
2022-12-01T23:34:39.101Z,12.68
2022-12-01T23:37:09.846Z,10.10
2022-12-01T23:39:37.441Z,15.23
2022-12-01T23:42:06.199Z,17.75
2022-12-01T23:44:40.562Z,22.93
2022-12-01T23:47:26.719Z,24.92
2022-12-01T23:50:02.336Z,18.90
2022-12-01T23:52:36.676Z,26.90
2022-12-01T23:55:08.874Z,20.93
2022-12-01T23:57:36.541Z,27.80
